Time;durP1;ratioP1;P1;durP2;ratioP2;P2;SDS_P1;SDS_P2;PMS_P1;PMS_P2;Temp;Humidity;BMP_temperature;BMP_pressure;BME280_temperature;BME280_humidity;BME280_pressure;Samples;Min_cycle;Max_cycle;Signal;HPM_P1;HPM_P2
2023/11/19 00:02:23;;;;;;;16.10;14.90;;;8.40;99.90;;;;;;4858390;29;20213;-80
2023/11/19 00:04:53;;;;;;;15.13;14.13;;;8.40;99.90;;;;;;4861329;29;20210;-79
2023/11/19 00:07:20;;;;;;;15.57;14.63;;;8.40;99.90;;;;;;4853152;29;20291;-81
2023/11/19 00:09:49;;;;;;;15.00;14.10;;;8.40;99.90;;;;;;4860335;29;20659;-80
2023/11/19 00:12:18;;;;;;;14.77;13.87;;;8.40;99.90;;;;;;4864890;29;20349;-80
2023/11/19 00:14:50;;;;;;;15.40;14.47;;;8.40;99.90;;;;;;4857376;29;20737;-79
2023/11/19 00:17:17;;;;;;;15.43;14.43;;;8.50;99.90;;;;;;4863788;29;20274;-80
2023/11/19 00:19:44;;;;;;;15.43;14.40;;;8.50;99.90;;;;;;4859550;29;20672;-81
2023/11/19 00:22:11;;;;;;;16.00;14.90;;;8.50;99.90;;;;;;4855832;29;20202;-80
2023/11/19 00:24:39;;;;;;;15.83;14.83;;;8.50;99.90;;;;;;4855364;29;20210;-81
2023/11/19 00:27:07;;;;;;;15.00;14.00;;;8.50;99.90;;;;;;4858310;29;20218;-80
2023/11/19 00:29:36;;;;;;;15.40;14.40;;;8.60;99.90;;;;;;4865565;29;20214;-80
2023/11/19 00:32:05;;;;;;;15.37;14.37;;;8.60;99.90;;;;;;4867508;29;20293;-81
2023/11/19 00:34:33;;;;;;;15.67;14.57;;;8.60;99.90;;;;;;4867370;29;20682;-80
2023/11/19 00:37:00;;;;;;;15.83;14.83;;;8.60;99.90;;;;;;4860465;29;20249;-80
2023/11/19 00:39:27;;;;;;;14.70;13.80;;;8.60;99.90;;;;;;4852419;29;20242;-80
2023/11/19 00:41:56;;;;;;;14.83;13.83;;;8.60;99.90;;;;;;4863225;29;20218;-80
2023/11/19 00:44:23;;;;;;;15.00;13.90;;;8.70;99.90;;;;;;4857624;29;20218;-81
2023/11/19 00:47:00;;;;;;;14.07;13.27;;;8.70;99.90;;;;;;4856488;29;20579;-81
2023/11/19 00:49:32;;;;;;;14.13;13.33;;;8.70;99.90;;;;;;4853741;29;20222;-80
2023/11/19 00:51:59;;;;;;;14.10;13.30;;;8.70;99.90;;;;;;4861779;29;20298;-80
2023/11/19 00:54:28;;;;;;;15.10;14.10;;;8.80;99.90;;;;;;4857348;29;20278;-81
2023/11/19 00:56:56;;;;;;;14.80;14.00;;;8.80;99.90;;;;;;4854871;29;20245;-80
2023/11/19 00:59:24;;;;;;;14.57;13.77;;;8.80;99.90;;;;;;4859769;29;20288;-80
2023/11/19 01:01:51;;;;;;;15.07;14.17;;;8.90;99.90;;;;;;4855127;29;20217;-80
2023/11/19 01:04:20;;;;;;;13.97;13.17;;;8.90;99.90;;;;;;4860595;29;20252;-81
2023/11/19 01:06:50;;;;;;;14.13;13.33;;;8.90;99.90;;;;;;4862773;29;20234;-80
2023/11/19 01:09:19;;;;;;;14.90;14.00;;;9.00;99.90;;;;;;4868085;29;20210;-80
2023/11/19 01:11:48;;;;;;;14.43;13.63;;;9.00;99.90;;;;;;4859319;29;20223;-80
2023/11/19 01:14:18;;;;;;;13.97;13.17;;;9.00;99.90;;;;;;4862197;29;20288;-80
2023/11/19 01:16:47;;;;;;;14.57;13.77;;;9.00;99.90;;;;;;4857776;29;20218;-79
2023/11/19 01:19:16;;;;;;;14.97;14.17;;;9.10;99.90;;;;;;4862580;29;20639;-81
2023/11/19 01:21:52;;;;;;;14.70;13.90;;;9.10;99.90;;;;;;4855645;29;20223;-81
2023/11/19 01:24:22;;;;;;;14.63;13.83;;;9.10;99.90;;;;;;4863110;29;20691;-80
2023/11/19 01:26:53;;;;;;;14.70;13.90;;;9.20;99.90;;;;;;4861289;29;20222;-81
2023/11/19 01:29:20;;;;;;;14.23;13.47;;;9.20;99.90;;;;;;4865688;29;20217;-80
2023/11/19 01:31:47;;;;;;;14.67;13.90;;;9.20;99.90;;;;;;4866640;29;20291;-81
2023/11/19 01:34:14;;;;;;;14.80;14.00;;;9.20;99.90;;;;;;4860764;29;20206;-80
2023/11/19 01:36:41;;;;;;;14.83;14.03;;;9.20;99.90;;;;;;4865572;29;20308;-81
2023/11/19 01:39:10;;;;;;;14.77;13.97;;;9.20;99.90;;;;;;4848232;29;20238;-79
2023/11/19 01:41:38;;;;;;;14.87;14.07;;;9.30;99.90;;;;;;4866263;29;20209;-80
2023/11/19 01:44:07;;;;;;;15.27;14.40;;;9.30;99.90;;;;;;4861622;29;20255;-79
2023/11/19 01:46:35;;;;;;;14.73;13.93;;;9.30;99.90;;;;;;4859484;29;20230;-81
2023/11/19 01:49:03;;;;;;;15.03;14.03;;;9.30;99.90;;;;;;4861689;29;20202;-79
2023/11/19 01:51:31;;;;;;;14.70;13.90;;;9.30;99.90;;;;;;4861537;29;20571;-80
2023/11/19 01:53:59;;;;;;;14.40;13.70;;;9.30;99.90;;;;;;4862618;29;20262;-80
2023/11/19 01:56:30;;;;;;;14.87;14.07;;;9.30;99.90;;;;;;4850338;29;20695;-80
2023/11/19 01:59:00;;;;;;;14.40;13.60;;;9.40;99.90;;;;;;4854359;29;20206;-80
2023/11/19 02:01:29;;;;;;;14.70;13.90;;;9.40;99.90;;;;;;4850163;29;20210;-79
2023/11/19 02:03:58;;;;;;;14.60;13.90;;;9.40;99.90;;;;;;4846381;29;20294;-80
2023/11/19 02:06:26;;;;;;;14.40;13.70;;;9.40;99.90;;;;;;4849587;29;20206;-80
2023/11/19 02:08:53;;;;;;;14.50;13.77;;;9.40;99.90;;;;;;4861211;29;20202;-81
2023/11/19 02:11:21;;;;;;;14.77;13.97;;;9.40;99.90;;;;;;4855530;29;20230;-81
2023/11/19 02:13:50;;;;;;;14.70;13.90;;;9.40;99.90;;;;;;4855422;29;20363;-79
2023/11/19 02:16:17;;;;;;;14.50;13.80;;;9.50;99.90;;;;;;4862733;29;20209;-79
2023/11/19 02:18:48;;;;;;;14.70;13.80;;;9.50;99.90;;;;;;4866089;29;20202;-80
2023/11/19 02:21:17;;;;;;;14.40;13.60;;;9.50;99.90;;;;;;4861256;29;20324;-80
2023/11/19 02:23:47;;;;;;;14.93;14.13;;;9.50;99.90;;;;;;4850581;29;20210;-80
2023/11/19 02:26:19;;;;;;;14.87;14.03;;;9.50;99.90;;;;;;4865032;29;20227;-80
2023/11/19 02:28:51;;;;;;;14.87;14.10;;;9.60;99.90;;;;;;4856605;29;20256;-81
2023/11/19 02:31:22;;;;;;;14.53;13.70;;;9.60;99.90;;;;;;4851816;29;20254;-79
2023/11/19 02:33:50;;;;;;;14.47;13.67;;;9.60;99.90;;;;;;4856877;29;20267;-80
2023/11/19 02:36:17;;;;;;;14.30;13.50;;;9.70;99.90;;;;;;4868812;29;20206;-81
2023/11/19 02:38:50;;;;;;;14.40;13.60;;;9.70;99.90;;;;;;4854375;29;20210;-80
2023/11/19 02:41:19;;;;;;;14.80;14.00;;;9.70;99.90;;;;;;4853590;29;20238;-80
2023/11/19 02:43:52;;;;;;;14.30;13.50;;;9.80;99.90;;;;;;4855457;29;20512;-80
2023/11/19 02:46:28;;;;;;;14.27;13.50;;;9.80;99.90;;;;;;4850803;29;20235;-81
2023/11/19 02:52:10;;;;;;;14.50;13.70;;;9.80;99.90;;;;;;4855428;29;20338;-80
2023/11/19 02:54:42;;;;;;;14.20;13.40;;;9.90;99.90;;;;;;4858029;29;20205;-82
2023/11/19 03:00:15;;;;;;;14.70;13.90;;;9.90;99.90;;;;;;4862184;29;20270;-80
2023/11/19 03:02:58;;;;;;;14.60;13.80;;;9.90;99.90;;;;;;4852514;29;20286;-81
2023/11/19 03:05:30;;;;;;;14.60;13.90;;;9.90;99.90;;;;;;4853642;29;20215;-81
2023/11/19 03:07:58;;;;;;;14.90;14.10;;;9.90;99.90;;;;;;4849243;29;20253;-80
2023/11/19 03:10:25;;;;;;;14.50;13.70;;;9.90;99.90;;;;;;4854432;29;20217;-81
2023/11/19 03:12:54;;;;;;;14.50;13.70;;;10.00;99.90;;;;;;4857463;29;20267;-80
2023/11/19 03:15:26;;;;;;;14.40;13.40;;;10.00;99.90;;;;;;4850518;29;20719;-80
2023/11/19 03:18:01;;;;;;;14.40;13.70;;;10.00;99.90;;;;;;4851294;29;20229;-80
2023/11/19 03:20:41;;;;;;;;;;;;;;;;;;;;;
2023/11/19 03:23:10;;;;;;;14.73;13.93;;;10.00;99.90;;;;;;4864837;29;20218;-81
2023/11/19 03:25:40;;;;;;;14.03;13.33;;;10.00;99.90;;;;;;4866062;29;20297;-80
2023/11/19 03:28:21;;;;;;;14.40;13.60;;;10.00;99.90;;;;;;4855792;29;20585;-80
2023/11/19 03:31:09;;;;;;;14.13;13.43;;;10.00;99.90;;;;;;4860243;29;20211;-80
2023/11/19 03:33:48;;;;;;;;;;;;;;;;;;;;;
2023/11/19 03:36:36;;;;;;;14.40;13.60;;;10.00;99.90;;;;;;4858054;29;20296;-81
2023/11/19 03:39:09;;;;;;;14.47;13.73;;;10.00;99.90;;;;;;4855733;29;20207;-80
2023/11/19 03:41:46;;;;;;;14.37;13.67;;;10.00;99.90;;;;;;4850881;29;20261;-80
2023/11/19 03:44:19;;;;;;;14.60;13.80;;;10.00;99.90;;;;;;4859307;29;20690;-80
2023/11/19 03:46:51;;;;;;;15.33;14.53;;;10.00;99.90;;;;;;4866317;29;20221;-81
2023/11/19 03:49:18;;;;;;;15.27;14.40;;;10.10;99.90;;;;;;4859289;29;20198;-80
2023/11/19 03:51:49;;;;;;;15.10;14.30;;;10.10;99.90;;;;;;4859135;29;20234;-81
2023/11/19 03:54:18;;;;;;;14.60;13.90;;;10.00;99.90;;;;;;4859485;29;20583;-80
2023/11/19 03:56:46;;;;;;;14.53;13.83;;;10.00;99.90;;;;;;4858758;29;20250;-81
2023/11/19 03:59:37;;;;;;;14.90;14.13;;;10.10;99.90;;;;;;4856527;29;20245;-83
2023/11/19 04:02:19;;;;;;;15.20;14.40;;;10.10;99.90;;;;;;4856181;29;20206;-80
2023/11/19 04:05:19;;;;;;;15.20;14.40;;;10.10;99.90;;;;;;4851314;29;20723;-81
2023/11/19 04:08:15;;;;;;;15.37;14.57;;;10.10;99.90;;;;;;4847291;29;20313;-82
2023/11/19 04:10:43;;;;;;;15.57;14.77;;;10.10;99.90;;;;;;4842558;29;20215;-79
2023/11/19 04:13:09;;;;;;;15.83;15.03;;;10.10;99.90;;;;;;4860143;29;20206;-79
2023/11/19 04:15:37;;;;;;;15.80;15.00;;;10.10;99.90;;;;;;4860678;29;20206;-79
2023/11/19 04:18:05;;;;;;;15.80;15.00;;;10.10;99.90;;;;;;4857364;29;20237;-79
2023/11/19 04:20:32;;;;;;;15.80;15.00;;;10.20;99.90;;;;;;4849476;29;20784;-80
2023/11/19 04:23:00;;;;;;;15.60;14.80;;;10.20;99.90;;;;;;4843230;29;20209;-79
2023/11/19 04:25:29;;;;;;;15.63;14.73;;;10.20;99.90;;;;;;4846962;29;20301;-80
2023/11/19 04:27:56;;;;;;;15.77;14.97;;;10.20;99.90;;;;;;4849097;29;20234;-79
2023/11/19 04:30:23;;;;;;;16.27;15.40;;;10.20;99.90;;;;;;4846329;29;20213;-80
2023/11/19 04:32:50;;;;;;;15.27;14.47;;;10.20;99.90;;;;;;4846739;29;20687;-80
2023/11/19 04:35:25;;;;;;;15.47;14.67;;;10.20;99.90;;;;;;4844632;29;20218;-80
2023/11/19 04:37:52;;;;;;;15.20;14.40;;;10.10;99.90;;;;;;4844106;29;20707;-79
2023/11/19 04:40:19;;;;;;;15.23;14.43;;;10.20;99.90;;;;;;4848513;29;20601;-80
2023/11/19 04:42:46;;;;;;;15.63;14.83;;;10.20;99.90;;;;;;4846883;29;20206;-78
2023/11/19 04:45:13;;;;;;;16.37;15.47;;;10.20;99.90;;;;;;4853064;29;20508;-80
2023/11/19 04:47:40;;;;;;;15.60;14.80;;;10.20;99.90;;;;;;4853810;29;20314;-79
2023/11/19 04:50:10;;;;;;;15.77;14.87;;;10.20;99.90;;;;;;4850159;29;20230;-79
2023/11/19 04:52:42;;;;;;;15.63;14.83;;;10.20;99.90;;;;;;4844868;29;20630;-79
2023/11/19 04:55:11;;;;;;;15.37;14.57;;;10.20;99.90;;;;;;4845872;29;20238;-79
2023/11/19 04:57:38;;;;;;;15.43;14.63;;;10.20;99.90;;;;;;4849788;29;20230;-79
2023/11/19 05:00:07;;;;;;;15.73;14.93;;;10.30;99.90;;;;;;4846776;29;20637;-79
2023/11/19 05:02:34;;;;;;;15.40;14.60;;;10.30;99.90;;;;;;4855099;29;20285;-80
2023/11/19 05:05:01;;;;;;;15.73;14.93;;;10.30;99.90;;;;;;4854610;29;20286;-78
2023/11/19 05:07:28;;;;;;;15.80;14.90;;;10.30;99.90;;;;;;4866825;29;20249;-79
2023/11/19 05:09:57;;;;;;;15.77;14.97;;;10.40;99.90;;;;;;4851539;29;20282;-79
2023/11/19 05:12:35;;;;;;;15.70;14.90;;;10.40;99.90;;;;;;4864755;29;20666;-80
2023/11/19 05:15:06;;;;;;;15.30;14.50;;;10.40;99.90;;;;;;4872940;29;20241;-79
2023/11/19 05:17:32;;;;;;;15.07;14.30;;;10.40;99.90;;;;;;4854376;29;20231;-80
2023/11/19 05:20:00;;;;;;;15.00;14.20;;;10.40;99.90;;;;;;4850557;29;20227;-79
2023/11/19 05:22:27;;;;;;;15.23;14.33;;;10.50;99.90;;;;;;4850018;29;20699;-79
2023/11/19 05:24:54;;;;;;;15.17;14.37;;;10.50;99.90;;;;;;4850975;29;20237;-79
2023/11/19 05:27:23;;;;;;;15.00;14.27;;;10.50;99.90;;;;;;4859485;29;20242;-79
2023/11/19 05:29:50;;;;;;;15.27;14.47;;;10.50;99.90;;;;;;4858663;29;20266;-79
2023/11/19 05:32:17;;;;;;;15.07;14.27;;;10.60;99.90;;;;;;4854435;29;20206;-79
2023/11/19 05:34:44;;;;;;;15.23;14.43;;;10.60;99.90;;;;;;4860038;29;20293;-80
2023/11/19 05:37:11;;;;;;;15.03;14.23;;;10.60;99.90;;;;;;4842649;29;21013;-79
2023/11/19 05:39:39;;;;;;;15.80;14.90;;;10.60;99.90;;;;;;4851328;29;20228;-79
2023/11/19 05:42:09;;;;;;;15.80;15.00;;;10.60;99.90;;;;;;4858621;29;20232;-79
2023/11/19 05:44:39;;;;;;;15.63;14.83;;;10.60;99.90;;;;;;4850388;29;20201;-79
2023/11/19 05:47:06;;;;;;;15.77;14.97;;;10.60;99.90;;;;;;4860552;29;20226;-80
2023/11/19 05:49:33;;;;;;;15.90;15.03;;;10.70;99.90;;;;;;4859069;29;20247;-79
2023/11/19 05:52:03;;;;;;;15.83;15.03;;;10.70;99.90;;;;;;4844208;29;20197;-80
2023/11/19 05:54:31;;;;;;;15.83;15.03;;;10.70;99.90;;;;;;4858587;29;20211;-82
2023/11/19 05:57:29;;;;;;;22.40;21.30;;;10.70;99.90;;;;;;4858439;29;20296;-81
2023/11/19 06:00:03;;;;;;;16.53;15.73;;;10.70;99.90;;;;;;4846436;29;20685;-79
2023/11/19 06:02:38;;;;;;;14.67;13.87;;;10.70;99.90;;;;;;4852586;29;20207;-78
2023/11/19 06:05:09;;;;;;;14.50;13.80;;;10.80;99.90;;;;;;4851557;29;20206;-79
2023/11/19 06:07:51;;;;;;;14.63;13.80;;;10.80;99.90;;;;;;4854203;29;20224;-80
2023/11/19 06:10:42;;;;;;;14.73;13.93;;;10.80;99.90;;;;;;4849023;29;20203;-82
2023/11/19 06:17:00;;;;;;;14.40;13.70;;;10.80;99.90;;;;;;4808617;29;20241;-81
2023/11/19 06:20:05;;;;;;;14.57;13.87;;;10.80;99.90;;;;;;4859390;29;20266;-80
2023/11/19 06:22:32;;;;;;;14.63;13.93;;;10.90;99.90;;;;;;4848056;29;20231;-78
2023/11/19 06:25:00;;;;;;;14.70;14.00;;;10.90;99.90;;;;;;4852663;29;20213;-79
2023/11/19 06:27:27;;;;;;;14.27;13.57;;;10.90;99.90;;;;;;4844243;29;20245;-78
2023/11/19 06:29:54;;;;;;;15.43;14.63;;;10.90;99.90;;;;;;4850197;29;20282;-79
2023/11/19 06:32:22;;;;;;;15.00;14.20;;;10.90;99.90;;;;;;4843889;29;20711;-80
2023/11/19 06:34:49;;;;;;;14.30;13.60;;;11.00;99.90;;;;;;4854231;29;20203;-80
2023/11/19 06:37:16;;;;;;;14.87;14.10;;;10.90;99.90;;;;;;4859099;29;20238;-79
2023/11/19 06:39:43;;;;;;;14.67;13.87;;;11.00;99.90;;;;;;4846484;29;20199;-79
2023/11/19 06:42:10;;;;;;;14.80;14.00;;;11.00;99.90;;;;;;4853031;29;20284;-79
2023/11/19 06:44:37;;;;;;;14.80;14.10;;;11.00;99.90;;;;;;4853181;29;20674;-79
2023/11/19 06:47:04;;;;;;;14.97;14.20;;;11.00;99.90;;;;;;4847967;29;20231;-80
2023/11/19 06:49:32;;;;;;;14.73;13.93;;;11.00;99.90;;;;;;4850605;29;20245;-79
2023/11/19 06:51:59;;;;;;;14.83;14.07;;;11.00;99.90;;;;;;4840430;29;20208;-79
2023/11/19 06:54:26;;;;;;;14.87;14.07;;;11.00;99.90;;;;;;4849647;29;20654;-79
2023/11/19 06:56:53;;;;;;;15.10;14.30;;;11.00;99.90;;;;;;4854836;29;20280;-78
2023/11/19 06:59:20;;;;;;;14.60;13.80;;;11.00;99.90;;;;;;4850474;29;20640;-79
2023/11/19 07:01:46;;;;;;;14.47;13.73;;;11.00;99.90;;;;;;4846827;29;20224;-80
2023/11/19 07:04:13;;;;;;;14.30;13.60;;;11.10;99.90;;;;;;4848643;29;20233;-79
2023/11/19 07:06:41;;;;;;;14.60;13.80;;;11.10;99.90;;;;;;4860950;29;20231;-79
2023/11/19 07:09:10;;;;;;;14.30;13.60;;;11.10;99.90;;;;;;4852837;29;20218;-79
2023/11/19 07:11:38;;;;;;;14.20;13.50;;;11.10;99.90;;;;;;4848520;29;20227;-79
2023/11/19 07:14:06;;;;;;;14.70;13.90;;;11.10;99.90;;;;;;4850120;29;20750;-80
2023/11/19 07:16:34;;;;;;;14.53;13.83;;;11.20;99.90;;;;;;4854397;29;20795;-79
2023/11/19 07:19:01;;;;;;;14.60;13.90;;;11.20;99.90;;;;;;4850383;29;20216;-79
2023/11/19 07:21:28;;;;;;;14.90;14.10;;;11.20;99.90;;;;;;4850229;29;20256;-80
2023/11/19 07:23:58;;;;;;;14.80;14.00;;;11.20;99.90;;;;;;4842727;29;20207;-79
2023/11/19 07:26:25;;;;;;;15.00;14.20;;;11.30;99.90;;;;;;4847054;29;20608;-79
2023/11/19 07:28:52;;;;;;;14.50;13.80;;;11.30;99.90;;;;;;4848069;29;20558;-80
2023/11/19 07:31:19;;;;;;;15.40;14.60;;;11.30;99.90;;;;;;4857460;29;20220;-81
2023/11/19 07:33:47;;;;;;;15.77;14.97;;;11.30;99.90;;;;;;4857947;29;20208;-81
2023/11/19 07:42:29;;;;;;;15.03;14.23;;;11.40;99.90;;;;;;4850955;29;20264;-82
2023/11/19 07:45:34;;;;;;;15.10;14.30;;;11.40;99.90;;;;;;4830628;29;20239;-82
2023/11/19 07:51:37;;;;;;;14.67;13.87;;;11.50;99.90;;;;;;4873376;29;20203;-82
2023/11/19 07:54:06;;;;;;;14.30;13.50;;;11.50;99.90;;;;;;4865864;29;20264;-81
2023/11/19 07:56:34;;;;;;;14.33;13.57;;;11.50;99.90;;;;;;4863347;29;20232;-82
2023/11/19 07:59:01;;;;;;;14.13;13.43;;;11.60;99.90;;;;;;4853487;29;20285;-81
2023/11/19 08:01:32;;;;;;;14.00;13.30;;;11.60;99.90;;;;;;4858284;29;20231;-80
2023/11/19 08:04:16;;;;;;;13.77;13.07;;;11.60;99.90;;;;;;4853452;29;20233;-80
2023/11/19 08:07:01;;;;;;;13.90;13.10;;;11.60;99.90;;;;;;4862724;29;20673;-80
2023/11/19 08:09:35;;;;;;;13.67;12.97;;;11.60;99.90;;;;;;4851213;29;20729;-79
2023/11/19 08:12:09;;;;;;;13.60;12.90;;;11.70;99.90;;;;;;4859352;29;20231;-79
2023/11/19 08:14:36;;;;;;;13.70;13.00;;;11.60;99.90;;;;;;4861820;29;20209;-80
2023/11/19 08:17:04;;;;;;;13.67;12.97;;;11.70;99.90;;;;;;4853125;29;20225;-78
2023/11/19 08:19:31;;;;;;;13.73;13.03;;;11.70;99.90;;;;;;4858439;29;20204;-80
2023/11/19 08:21:57;;;;;;;13.60;12.90;;;11.60;99.90;;;;;;4849061;29;20304;-80
2023/11/19 08:24:24;;;;;;;13.93;13.23;;;11.70;99.90;;;;;;4857745;29;20270;-80
2023/11/19 08:26:52;;;;;;;13.90;13.10;;;11.70;99.90;;;;;;4860098;29;20285;-79
2023/11/19 08:29:19;;;;;;;14.23;13.43;;;11.70;99.90;;;;;;4851747;29;20209;-81
2023/11/19 08:31:46;;;;;;;13.90;13.17;;;11.70;99.90;;;;;;4852159;29;20209;-81
2023/11/19 08:34:16;;;;;;;13.90;13.20;;;11.70;99.90;;;;;;4857178;29;20216;-82
2023/11/19 08:36:43;;;;;;;14.20;13.50;;;11.80;99.90;;;;;;4860258;29;20673;-78
2023/11/19 08:39:10;;;;;;;13.73;13.03;;;11.80;99.90;;;;;;4856138;29;20217;-80
2023/11/19 08:41:37;;;;;;;13.97;13.27;;;11.80;99.90;;;;;;4853606;29;20770;-80
2023/11/19 08:44:06;;;;;;;13.30;12.60;;;11.90;99.90;;;;;;4860345;29;20300;-81
2023/11/19 08:46:33;;;;;;;13.40;12.70;;;12.00;99.90;;;;;;4852258;29;20225;-81
2023/11/19 08:49:00;;;;;;;13.60;12.90;;;12.10;99.90;;;;;;4854029;29;20219;-80
2023/11/19 08:51:28;;;;;;;13.37;12.67;;;12.20;99.90;;;;;;4851456;29;20760;-78
2023/11/19 08:53:55;;;;;;;13.77;13.07;;;12.30;99.90;;;;;;4861648;29;20773;-83
2023/11/19 08:56:22;;;;;;;13.60;12.90;;;12.30;99.90;;;;;;4860509;29;20625;-77
2023/11/19 08:58:52;;;;;;;13.60;12.90;;;12.40;99.90;;;;;;4858178;29;20216;-83
2023/11/19 09:01:20;;;;;;;12.90;12.27;;;12.60;99.90;;;;;;4858606;29;20220;-81
2023/11/19 09:04:11;;;;;;;14.13;13.23;;;12.70;99.90;;;;;;4858171;29;20199;-81
2023/11/19 09:10:31;;;;;;;14.00;13.30;;;12.80;99.90;;;;;;4806039;29;20207;-80
2023/11/19 09:30:28;;;;;;;13.43;12.63;;;13.10;99.90;;;;;;4856568;29;20213;-82
2023/11/19 09:32:55;;;;;;;13.40;12.70;;;13.30;99.90;;;;;;4879292;29;20236;-78
2023/11/19 09:35:22;;;;;;;13.30;12.60;;;13.30;99.90;;;;;;4869541;29;20199;-81
2023/11/19 09:37:49;;;;;;;12.97;12.27;;;13.30;99.90;;;;;;4868060;29;20226;-79
2023/11/19 09:40:18;;;;;;;13.00;12.30;;;13.30;99.90;;;;;;4871640;29;20343;-79
2023/11/19 09:42:46;;;;;;;12.53;11.83;;;13.40;99.90;;;;;;4865983;29;20277;-79
2023/11/19 09:45:15;;;;;;;12.67;11.97;;;13.50;99.90;;;;;;4874679;29;20206;-79
2023/11/19 09:47:45;;;;;;;12.37;11.67;;;13.50;99.90;;;;;;4875720;29;20718;-79
2023/11/19 09:50:17;;;;;;;12.77;12.07;;;13.50;99.90;;;;;;4875188;29;20674;-80
2023/11/19 09:52:44;;;;;;;12.50;11.90;;;13.50;99.90;;;;;;4874031;29;20202;-80
2023/11/19 09:55:13;;;;;;;13.00;12.30;;;13.50;99.90;;;;;;4867706;29;20214;-80
2023/11/19 09:57:41;;;;;;;12.90;12.20;;;13.50;99.90;;;;;;4865441;29;20965;-80
2023/11/19 10:00:10;;;;;;;12.50;11.80;;;13.70;99.90;;;;;;4866473;29;20619;-80
2023/11/19 10:02:38;;;;;;;12.47;11.87;;;13.90;99.90;;;;;;4875559;29;20240;-80
2023/11/19 10:05:08;;;;;;;12.20;11.60;;;13.90;99.90;;;;;;4876394;29;20205;-81
2023/11/19 10:07:35;;;;;;;12.60;11.90;;;13.90;99.90;;;;;;4878402;29;20229;-81
2023/11/19 10:13:28;;;;;;;12.27;11.60;;;13.90;99.90;;;;;;4826677;29;20213;-80
2023/11/19 10:15:56;;;;;;;12.40;11.70;;;14.00;99.90;;;;;;4867017;29;20208;-80
2023/11/19 10:18:26;;;;;;;12.10;11.50;;;14.00;99.90;;;;;;4871130;29;20237;-81
2023/11/19 10:20:55;;;;;;;11.77;11.17;;;14.20;99.90;;;;;;4874706;29;20218;-80
2023/11/19 10:23:22;;;;;;;11.70;11.10;;;14.50;99.90;;;;;;4876301;29;20237;-80
2023/11/19 10:25:49;;;;;;;11.93;11.33;;;14.60;99.90;;;;;;4870978;29;20213;-80
2023/11/19 10:28:17;;;;;;;11.80;11.20;;;14.70;99.90;;;;;;4876779;29;20230;-79
2023/11/19 10:30:44;;;;;;;11.80;11.20;;;14.80;99.90;;;;;;4872248;29;20289;-80
2023/11/19 10:33:16;;;;;;;11.70;11.00;;;14.90;99.90;;;;;;4872991;29;20417;-80
2023/11/19 10:35:54;;;;;;;11.70;11.10;;;14.80;99.90;;;;;;4879569;29;20233;-81
2023/11/19 10:38:22;;;;;;;11.90;11.30;;;14.70;99.90;;;;;;4880932;29;20253;-80
2023/11/19 10:40:50;;;;;;;12.10;11.40;;;14.60;99.90;;;;;;4881183;29;20201;-81
2023/11/19 10:43:19;;;;;;;11.73;11.03;;;14.60;99.90;;;;;;4876240;29;20217;-80
2023/11/19 10:45:46;;;;;;;11.50;10.90;;;14.50;99.90;;;;;;4873124;29;20210;-81
2023/11/19 10:48:13;;;;;;;11.27;10.67;;;14.60;99.90;;;;;;4872433;29;20229;-81
2023/11/19 10:50:42;;;;;;;11.00;10.40;;;14.70;99.90;;;;;;4873853;29;20230;-82
2023/11/19 10:53:13;;;;;;;11.10;10.50;;;14.70;99.90;;;;;;4877791;29;20211;-81
2023/11/19 10:55:40;;;;;;;11.10;10.50;;;14.70;99.90;;;;;;4871313;29;20290;-82
2023/11/19 10:58:08;;;;;;;11.40;10.80;;;14.60;99.90;;;;;;4873987;29;20229;-82
2023/11/19 11:00:39;;;;;;;10.97;10.37;;;14.70;99.90;;;;;;4876959;29;20202;-82
2023/11/19 11:03:11;;;;;;;11.13;10.53;;;14.80;99.90;;;;;;4876224;29;20224;-81
2023/11/19 11:05:39;;;;;;;11.63;10.93;;;14.90;99.90;;;;;;4867217;29;20201;-81
2023/11/19 11:08:09;;;;;;;11.17;10.57;;;15.00;99.90;;;;;;4878214;29;20227;-81
2023/11/19 11:10:43;;;;;;;11.27;10.67;;;15.10;99.90;;;;;;4874796;29;20234;-81
2023/11/19 11:13:12;;;;;;;11.27;10.67;;;15.00;99.90;;;;;;4879012;29;20200;-84
2023/11/19 11:15:39;;;;;;;11.10;10.50;;;15.00;99.90;;;;;;4875221;29;20301;-82
2023/11/19 11:18:09;;;;;;;10.80;10.20;;;15.00;99.90;;;;;;4877125;29;20756;-81
2023/11/19 11:20:36;;;;;;;12.00;11.20;;;15.00;99.90;;;;;;4869686;29;20221;-82
2023/11/19 11:23:24;;;;;;;11.40;10.80;;;15.20;99.90;;;;;;4873732;29;20710;-82
2023/11/19 11:26:04;;;;;;;11.20;10.60;;;15.40;99.90;;;;;;4863079;29;20194;-82
2023/11/19 11:28:42;;;;;;;11.70;11.00;;;15.60;99.90;;;;;;4864002;29;20227;-82
2023/11/19 11:31:33;;;;;;;11.60;11.00;;;15.70;99.90;;;;;;4874175;29;20248;-82
2023/11/19 11:34:20;;;;;;;11.30;10.70;;;15.90;99.90;;;;;;4873999;29;20203;-83
2023/11/19 11:36:54;;;;;;;11.40;10.80;;;16.00;99.90;;;;;;4877094;29;20230;-82
2023/11/19 11:39:23;;;;;;;10.73;10.13;;;16.10;99.90;;;;;;4879507;29;20694;-82
2023/11/19 11:42:20;;;;;;;10.23;9.63;;;16.10;99.90;;;;;;4879065;29;20206;-81
2023/11/19 11:45:12;;;;;;;10.73;10.13;;;16.10;99.90;;;;;;4868519;29;20220;-82
2023/11/19 11:48:13;;;;;;;10.10;9.60;;;16.10;99.90;;;;;;4871406;29;20224;-82
2023/11/19 11:50:51;;;;;;;10.03;9.53;;;16.10;99.90;;;;;;4870201;29;20260;-82
2023/11/19 11:53:19;;;;;;;10.63;10.13;;;16.00;99.90;;;;;;4867772;29;20559;-84
2023/11/19 11:55:58;;;;;;;10.67;10.17;;;16.00;99.90;;;;;;4864698;29;20198;-84
2023/11/19 11:58:46;;;;;;;11.50;10.80;;;16.00;99.90;;;;;;4867772;29;20607;-83
2023/11/19 12:01:20;;;;;;;11.43;10.83;;;15.90;99.90;;;;;;4881012;29;20683;-85
2023/11/19 12:03:47;;;;;;;11.70;11.10;;;15.90;99.90;;;;;;4875978;29;20228;-84
2023/11/19 12:06:24;;;;;;;;;;;;;;;;;;;;;
2023/11/19 12:08:51;;;;;;;10.90;10.30;;;15.80;99.90;;;;;;4865359;29;20226;-83
2023/11/19 12:11:19;;;;;;;11.30;10.60;;;15.80;99.90;;;;;;4865717;29;20205;-82
2023/11/19 12:14:02;;;;;;;10.97;10.37;;;15.80;99.90;;;;;;4876306;29;20254;-82
2023/11/19 12:16:31;;;;;;;10.20;9.70;;;15.80;99.90;;;;;;4869357;29;20213;-85
2023/11/19 12:19:04;;;;;;;10.57;9.97;;;15.80;99.90;;;;;;4861012;29;20212;-83
2023/11/19 12:21:32;;;;;;;10.50;9.90;;;15.70;99.90;;;;;;4879864;29;20223;-86
2023/11/19 12:24:04;;;;;;;10.57;9.97;;;15.70;99.90;;;;;;4877539;29;20224;-85
2023/11/19 12:26:39;;;;;;;9.87;9.37;;;15.70;99.90;;;;;;4877383;29;20201;-80
2023/11/19 12:29:07;;;;;;;11.40;10.80;;;15.60;99.90;;;;;;4878545;29;20269;-82
2023/11/19 12:31:36;;;;;;;10.90;10.30;;;15.60;99.90;;;;;;4877973;29;20240;-83
2023/11/19 12:34:11;;;;;;;9.87;9.37;;;15.70;99.90;;;;;;4869810;29;20200;-82
2023/11/19 12:36:43;;;;;;;9.90;9.40;;;15.70;99.90;;;;;;4879472;29;20282;-82
2023/11/19 12:39:12;;;;;;;10.10;9.50;;;15.80;99.90;;;;;;4867821;29;20209;-83
2023/11/19 12:41:55;;;;;;;10.57;9.97;;;15.80;99.90;;;;;;4865606;29;20206;-83
2023/11/19 12:44:22;;;;;;;10.80;10.20;;;15.90;99.90;;;;;;4863114;29;20653;-82
2023/11/19 12:47:02;;;;;;;11.77;11.10;;;16.00;99.90;;;;;;4870954;29;20225;-82
2023/11/19 12:49:29;;;;;;;10.57;10.07;;;15.90;99.90;;;;;;4878950;29;20208;-82
2023/11/19 12:51:56;;;;;;;11.23;10.63;;;15.80;99.90;;;;;;4864173;29;20589;-81
2023/11/19 12:54:33;;;;;;;11.03;10.43;;;15.90;99.90;;;;;;4877640;29;20229;-82
2023/11/19 12:57:00;;;;;;;10.87;10.27;;;15.80;99.90;;;;;;4865901;29;20224;-83
2023/11/19 12:59:28;;;;;;;11.03;10.43;;;15.60;99.90;;;;;;4874520;29;20225;-83
2023/11/19 13:01:55;;;;;;;10.40;9.80;;;15.60;99.90;;;;;;4879071;29;20674;-82
2023/11/19 13:04:25;;;;;;;10.27;9.73;;;15.60;99.90;;;;;;4868814;29;20225;-82
2023/11/19 13:06:52;;;;;;;10.87;10.27;;;15.60;99.90;;;;;;4872088;29;20231;-83
2023/11/19 13:09:25;;;;;;;10.60;10.00;;;15.60;99.90;;;;;;4879172;29;20213;-83
2023/11/19 13:11:53;;;;;;;10.83;10.23;;;15.60;99.90;;;;;;4871295;29;20205;-78
2023/11/19 13:14:24;;;;;;;10.80;10.20;;;15.70;99.90;;;;;;4861566;29;20198;-82
2023/11/19 13:16:50;;;;;;;11.00;10.40;;;15.60;99.90;;;;;;4870163;29;20236;-80
2023/11/19 13:19:18;;;;;;;10.67;10.07;;;15.70;99.90;;;;;;4878653;29;20209;-80
2023/11/19 13:21:48;;;;;;;10.50;10.00;;;15.60;99.90;;;;;;4870729;29;20277;-80
2023/11/19 13:24:15;;;;;;;10.47;9.87;;;15.50;99.90;;;;;;4877510;29;20239;-81
2023/11/19 13:26:42;;;;;;;10.30;9.70;;;15.40;99.90;;;;;;4868980;29;20721;-80
2023/11/19 13:29:10;;;;;;;10.37;9.87;;;15.30;99.90;;;;;;4873628;29;20248;-81
2023/11/19 13:31:37;;;;;;;10.77;10.10;;;15.20;99.90;;;;;;4877792;29;20224;-79
2023/11/19 13:34:07;;;;;;;10.77;10.17;;;15.20;99.90;;;;;;4872151;29;20569;-85
2023/11/19 13:36:34;;;;;;;10.67;10.07;;;15.10;99.90;;;;;;4875834;29;20232;-84